sensor_id;sensor_type;location;lat;lon;timestamp;temperature;humidity
61916;DHT22;47868;51.326;6.550;2022-08-19T00:01:22;22.40;99.90
61916;DHT22;47868;51.326;6.550;2022-08-19T00:03:48;22.30;99.90
61916;DHT22;47868;51.326;6.550;2022-08-19T00:06:15;22.30;99.90
61916;DHT22;47868;51.326;6.550;2022-08-19T00:08:41;22.30;99.90
61916;DHT22;47868;51.326;6.550;2022-08-19T00:11:07;22.30;99.90
61916;DHT22;47868;51.326;6.550;2022-08-19T00:13:33;22.20;99.90
61916;DHT22;47868;51.326;6.550;2022-08-19T00:15:59;22.20;99.90
61916;DHT22;47868;51.326;6.550;2022-08-19T00:18:26;22.10;99.90
61916;DHT22;47868;51.326;6.550;2022-08-19T00:20:51;22.10;99.90
61916;DHT22;47868;51.326;6.550;2022-08-19T00:23:18;22.10;99.90
61916;DHT22;47868;51.326;6.550;2022-08-19T00:25:44;22.10;99.90
61916;DHT22;47868;51.326;6.550;2022-08-19T00:28:10;22.10;99.90
61916;DHT22;47868;51.326;6.550;2022-08-19T00:30:36;22.00;99.90
61916;DHT22;47868;51.326;6.550;2022-08-19T00:33:02;21.90;99.90
61916;DHT22;47868;51.326;6.550;2022-08-19T00:35:28;22.00;99.90
61916;DHT22;47868;51.326;6.550;2022-08-19T00:37:54;21.90;99.90
61916;DHT22;47868;51.326;6.550;2022-08-19T00:40:20;21.80;99.90
61916;DHT22;47868;51.326;6.550;2022-08-19T00:42:46;21.80;99.90
61916;DHT22;47868;51.326;6.550;2022-08-19T00:45:16;21.80;99.90
61916;DHT22;47868;51.326;6.550;2022-08-19T00:47:43;21.80;99.90
61916;DHT22;47868;51.326;6.550;2022-08-19T00:50:12;21.70;99.90
61916;DHT22;47868;51.326;6.550;2022-08-19T00:52:42;21.80;99.90
61916;DHT22;47868;51.326;6.550;2022-08-19T00:55:14;21.70;99.90
61916;DHT22;47868;51.326;6.550;2022-08-19T00:57:43;21.70;99.90
61916;DHT22;47868;51.326;6.550;2022-08-19T01:00:13;21.70;99.90
61916;DHT22;47868;51.326;6.550;2022-08-19T01:02:41;21.60;99.90
61916;DHT22;47868;51.326;6.550;2022-08-19T01:05:11;21.60;99.90
61916;DHT22;47868;51.326;6.550;2022-08-19T01:07:39;21.60;99.90
61916;DHT22;47868;51.326;6.550;2022-08-19T01:10:09;21.50;99.90
61916;DHT22;47868;51.326;6.550;2022-08-19T01:12:36;21.40;99.90
61916;DHT22;47868;51.326;6.550;2022-08-19T01:15:04;21.40;99.90
61916;DHT22;47868;51.326;6.550;2022-08-19T01:17:30;21.50;99.90
61916;DHT22;47868;51.326;6.550;2022-08-19T01:19:56;21.50;99.90
61916;DHT22;47868;51.326;6.550;2022-08-19T01:22:30;21.50;99.90
61916;DHT22;47868;51.326;6.550;2022-08-19T01:24:57;21.50;99.90
61916;DHT22;47868;51.326;6.550;2022-08-19T01:27:23;21.40;99.90
61916;DHT22;47868;51.326;6.550;2022-08-19T01:29:48;21.30;99.90
61916;DHT22;47868;51.326;6.550;2022-08-19T01:32:16;21.30;99.90
61916;DHT22;47868;51.326;6.550;2022-08-19T01:34:42;21.20;99.90
61916;DHT22;47868;51.326;6.550;2022-08-19T01:37:14;21.20;99.90
61916;DHT22;47868;51.326;6.550;2022-08-19T01:39:40;21.20;99.90
61916;DHT22;47868;51.326;6.550;2022-08-19T01:42:07;21.20;99.90
61916;DHT22;47868;51.326;6.550;2022-08-19T01:44:36;21.20;99.90
61916;DHT22;47868;51.326;6.550;2022-08-19T01:47:03;21.20;99.90
61916;DHT22;47868;51.326;6.550;2022-08-19T01:49:29;21.30;99.90
61916;DHT22;47868;51.326;6.550;2022-08-19T01:51:55;21.20;99.90
61916;DHT22;47868;51.326;6.550;2022-08-19T01:54:23;21.10;99.90
61916;DHT22;47868;51.326;6.550;2022-08-19T01:56:51;21.10;99.90
61916;DHT22;47868;51.326;6.550;2022-08-19T01:59:21;21.10;99.90
61916;DHT22;47868;51.326;6.550;2022-08-19T02:01:48;21.10;99.90
61916;DHT22;47868;51.326;6.550;2022-08-19T02:04:14;21.00;99.90
61916;DHT22;47868;51.326;6.550;2022-08-19T02:06:40;20.90;99.90
61916;DHT22;47868;51.326;6.550;2022-08-19T02:09:06;21.00;99.90
61916;DHT22;47868;51.326;6.550;2022-08-19T02:11:35;21.00;99.90
61916;DHT22;47868;51.326;6.550;2022-08-19T02:14:04;21.00;99.90
61916;DHT22;47868;51.326;6.550;2022-08-19T02:16:31;21.00;99.90
61916;DHT22;47868;51.326;6.550;2022-08-19T02:18:58;21.10;99.90
61916;DHT22;47868;51.326;6.550;2022-08-19T02:21:26;21.10;99.90
61916;DHT22;47868;51.326;6.550;2022-08-19T02:23:52;21.20;99.90
61916;DHT22;47868;51.326;6.550;2022-08-19T02:26:19;21.10;99.90
61916;DHT22;47868;51.326;6.550;2022-08-19T02:28:45;21.10;99.90
61916;DHT22;47868;51.326;6.550;2022-08-19T02:31:13;21.00;99.90
61916;DHT22;47868;51.326;6.550;2022-08-19T02:33:43;21.00;99.90
61916;DHT22;47868;51.326;6.550;2022-08-19T02:36:10;21.10;99.90
61916;DHT22;47868;51.326;6.550;2022-08-19T02:38:37;21.00;99.90
61916;DHT22;47868;51.326;6.550;2022-08-19T02:41:06;21.00;99.90
61916;DHT22;47868;51.326;6.550;2022-08-19T02:43:33;20.90;99.90
61916;DHT22;47868;51.326;6.550;2022-08-19T02:46:11;20.80;99.90
61916;DHT22;47868;51.326;6.550;2022-08-19T02:48:37;20.60;99.90
61916;DHT22;47868;51.326;6.550;2022-08-19T02:51:02;20.60;99.90
61916;DHT22;47868;51.326;6.550;2022-08-19T02:53:28;20.60;99.90
61916;DHT22;47868;51.326;6.550;2022-08-19T02:55:54;20.60;99.90
61916;DHT22;47868;51.326;6.550;2022-08-19T02:58:21;20.60;99.90
61916;DHT22;47868;51.326;6.550;2022-08-19T03:00:50;20.60;99.90
61916;DHT22;47868;51.326;6.550;2022-08-19T03:03:17;20.60;99.90
61916;DHT22;47868;51.326;6.550;2022-08-19T03:05:44;20.60;99.90
61916;DHT22;47868;51.326;6.550;2022-08-19T03:08:12;20.60;99.90
61916;DHT22;47868;51.326;6.550;2022-08-19T03:10:46;20.60;99.90
61916;DHT22;47868;51.326;6.550;2022-08-19T03:13:14;20.60;99.90
61916;DHT22;47868;51.326;6.550;2022-08-19T03:15:43;20.60;99.90
61916;DHT22;47868;51.326;6.550;2022-08-19T03:18:09;20.60;99.90
61916;DHT22;47868;51.326;6.550;2022-08-19T03:20:40;20.50;99.90
61916;DHT22;47868;51.326;6.550;2022-08-19T03:23:06;20.50;99.90
61916;DHT22;47868;51.326;6.550;2022-08-19T03:25:37;20.50;99.90
61916;DHT22;47868;51.326;6.550;2022-08-19T03:28:03;21.10;99.90
61916;DHT22;47868;51.326;6.550;2022-08-19T03:30:29;21.00;99.90
61916;DHT22;47868;51.326;6.550;2022-08-19T03:32:54;20.40;99.90
61916;DHT22;47868;51.326;6.550;2022-08-19T03:35:20;20.40;99.90
61916;DHT22;47868;51.326;6.550;2022-08-19T03:37:45;20.40;99.90
61916;DHT22;47868;51.326;6.550;2022-08-19T03:40:11;20.30;99.90
61916;DHT22;47868;51.326;6.550;2022-08-19T03:42:37;20.20;99.90
61916;DHT22;47868;51.326;6.550;2022-08-19T03:45:03;20.20;99.90
61916;DHT22;47868;51.326;6.550;2022-08-19T03:47:28;20.10;99.90
61916;DHT22;47868;51.326;6.550;2022-08-19T03:49:55;20.10;99.90
61916;DHT22;47868;51.326;6.550;2022-08-19T03:52:21;20.10;99.90
61916;DHT22;47868;51.326;6.550;2022-08-19T03:54:46;20.10;99.90
61916;DHT22;47868;51.326;6.550;2022-08-19T03:57:12;20.40;99.90
61916;DHT22;47868;51.326;6.550;2022-08-19T03:59:38;20.00;99.90
61916;DHT22;47868;51.326;6.550;2022-08-19T04:02:08;20.20;99.90
61916;DHT22;47868;51.326;6.550;2022-08-19T04:04:35;20.20;99.90
61916;DHT22;47868;51.326;6.550;2022-08-19T04:07:01;20.30;99.90
61916;DHT22;47868;51.326;6.550;2022-08-19T04:09:27;20.50;99.90
61916;DHT22;47868;51.326;6.550;2022-08-19T04:11:54;20.10;99.90
61916;DHT22;47868;51.326;6.550;2022-08-19T04:14:24;20.10;99.90
61916;DHT22;47868;51.326;6.550;2022-08-19T04:16:51;20.30;99.90
61916;DHT22;47868;51.326;6.550;2022-08-19T04:19:18;20.10;99.90
61916;DHT22;47868;51.326;6.550;2022-08-19T04:21:45;20.30;99.90
61916;DHT22;47868;51.326;6.550;2022-08-19T04:24:13;20.00;99.90
61916;DHT22;47868;51.326;6.550;2022-08-19T04:26:38;19.70;99.90
61916;DHT22;47868;51.326;6.550;2022-08-19T04:29:14;20.00;99.90
61916;DHT22;47868;51.326;6.550;2022-08-19T04:31:42;20.60;99.90
61916;DHT22;47868;51.326;6.550;2022-08-19T04:34:10;20.10;99.90
61916;DHT22;47868;51.326;6.550;2022-08-19T04:36:37;19.90;99.90
61916;DHT22;47868;51.326;6.550;2022-08-19T04:39:16;19.90;99.90
61916;DHT22;47868;51.326;6.550;2022-08-19T04:41:43;19.00;99.90
61916;DHT22;47868;51.326;6.550;2022-08-19T04:44:29;19.30;99.90
61916;DHT22;47868;51.326;6.550;2022-08-19T04:46:56;19.80;99.90
61916;DHT22;47868;51.326;6.550;2022-08-19T04:49:22;19.80;99.90
61916;DHT22;47868;51.326;6.550;2022-08-19T04:51:50;19.80;99.90
61916;DHT22;47868;51.326;6.550;2022-08-19T04:54:18;19.70;99.90
61916;DHT22;47868;51.326;6.550;2022-08-19T04:56:49;19.70;99.90
61916;DHT22;47868;51.326;6.550;2022-08-19T04:59:16;19.80;99.90
61916;DHT22;47868;51.326;6.550;2022-08-19T05:01:42;19.80;99.90
61916;DHT22;47868;51.326;6.550;2022-08-19T05:04:09;19.90;99.90
61916;DHT22;47868;51.326;6.550;2022-08-19T05:06:36;19.90;99.90
61916;DHT22;47868;51.326;6.550;2022-08-19T05:09:04;19.90;99.90
61916;DHT22;47868;51.326;6.550;2022-08-19T05:11:35;20.00;99.90
61916;DHT22;47868;51.326;6.550;2022-08-19T05:14:03;19.90;99.90
61916;DHT22;47868;51.326;6.550;2022-08-19T05:16:29;19.90;99.90
61916;DHT22;47868;51.326;6.550;2022-08-19T05:18:55;20.00;99.90
61916;DHT22;47868;51.326;6.550;2022-08-19T05:21:41;20.00;99.90
61916;DHT22;47868;51.326;6.550;2022-08-19T05:24:25;20.00;99.90
61916;DHT22;47868;51.326;6.550;2022-08-19T05:26:52;20.00;99.90
61916;DHT22;47868;51.326;6.550;2022-08-19T05:29:23;20.00;99.90
61916;DHT22;47868;51.326;6.550;2022-08-19T05:31:50;20.10;99.90
61916;DHT22;47868;51.326;6.550;2022-08-19T05:34:18;20.00;99.90
61916;DHT22;47868;51.326;6.550;2022-08-19T05:36:45;20.00;99.90
61916;DHT22;47868;51.326;6.550;2022-08-19T05:39:15;19.90;99.90
61916;DHT22;47868;51.326;6.550;2022-08-19T05:41:47;20.00;99.90
61916;DHT22;47868;51.326;6.550;2022-08-19T05:44:14;20.00;99.90
61916;DHT22;47868;51.326;6.550;2022-08-19T05:46:43;20.00;99.90
61916;DHT22;47868;51.326;6.550;2022-08-19T05:49:12;20.10;99.90
61916;DHT22;47868;51.326;6.550;2022-08-19T05:51:38;20.10;99.90
61916;DHT22;47868;51.326;6.550;2022-08-19T05:54:06;20.10;99.90
61916;DHT22;47868;51.326;6.550;2022-08-19T05:56:32;20.10;99.90
61916;DHT22;47868;51.326;6.550;2022-08-19T05:59:02;20.30;99.90
61916;DHT22;47868;51.326;6.550;2022-08-19T06:01:29;20.30;99.90
61916;DHT22;47868;51.326;6.550;2022-08-19T06:03:55;20.30;99.90
61916;DHT22;47868;51.326;6.550;2022-08-19T06:06:20;20.30;99.90
61916;DHT22;47868;51.326;6.550;2022-08-19T06:08:46;20.40;99.90
61916;DHT22;47868;51.326;6.550;2022-08-19T06:13:42;20.40;99.90
61916;DHT22;47868;51.326;6.550;2022-08-19T06:16:08;20.50;99.90
61916;DHT22;47868;51.326;6.550;2022-08-19T06:18:33;20.50;99.90
61916;DHT22;47868;51.326;6.550;2022-08-19T06:20:59;20.50;99.90
61916;DHT22;47868;51.326;6.550;2022-08-19T06:23:28;20.60;99.90
61916;DHT22;47868;51.326;6.550;2022-08-19T06:25:54;20.70;99.90
61916;DHT22;47868;51.326;6.550;2022-08-19T06:28:20;20.70;99.90
61916;DHT22;47868;51.326;6.550;2022-08-19T06:30:47;20.70;99.90
61916;DHT22;47868;51.326;6.550;2022-08-19T06:33:12;20.70;99.90
61916;DHT22;47868;51.326;6.550;2022-08-19T06:35:40;20.70;99.90
61916;DHT22;47868;51.326;6.550;2022-08-19T06:38:05;20.70;99.90
61916;DHT22;47868;51.326;6.550;2022-08-19T06:40:31;20.80;99.90
61916;DHT22;47868;51.326;6.550;2022-08-19T06:42:57;20.90;99.90
61916;DHT22;47868;51.326;6.550;2022-08-19T06:45:25;20.90;99.90
61916;DHT22;47868;51.326;6.550;2022-08-19T06:47:52;20.90;99.90
61916;DHT22;47868;51.326;6.550;2022-08-19T06:50:24;20.90;99.90
61916;DHT22;47868;51.326;6.550;2022-08-19T06:52:50;20.90;99.90
61916;DHT22;47868;51.326;6.550;2022-08-19T06:55:16;21.00;99.90
61916;DHT22;47868;51.326;6.550;2022-08-19T06:57:41;21.00;99.90
61916;DHT22;47868;51.326;6.550;2022-08-19T07:00:08;21.10;99.90
61916;DHT22;47868;51.326;6.550;2022-08-19T07:02:42;21.20;99.90
61916;DHT22;47868;51.326;6.550;2022-08-19T07:05:08;21.30;99.90
61916;DHT22;47868;51.326;6.550;2022-08-19T07:07:34;21.30;99.90
61916;DHT22;47868;51.326;6.550;2022-08-19T07:10:00;21.40;99.90
61916;DHT22;47868;51.326;6.550;2022-08-19T07:12:28;21.50;99.90
61916;DHT22;47868;51.326;6.550;2022-08-19T07:14:54;21.50;99.90
61916;DHT22;47868;51.326;6.550;2022-08-19T07:17:20;21.50;99.90
61916;DHT22;47868;51.326;6.550;2022-08-19T07:19:46;21.50;99.90
61916;DHT22;47868;51.326;6.550;2022-08-19T07:22:11;21.50;99.90
61916;DHT22;47868;51.326;6.550;2022-08-19T07:24:37;21.60;99.90
61916;DHT22;47868;51.326;6.550;2022-08-19T07:27:05;21.60;99.90
61916;DHT22;47868;51.326;6.550;2022-08-19T07:29:32;21.80;99.90
61916;DHT22;47868;51.326;6.550;2022-08-19T07:32:00;21.90;99.90
61916;DHT22;47868;51.326;6.550;2022-08-19T07:34:27;21.90;99.90
61916;DHT22;47868;51.326;6.550;2022-08-19T07:36:54;22.00;99.90
61916;DHT22;47868;51.326;6.550;2022-08-19T07:39:24;22.00;99.90
61916;DHT22;47868;51.326;6.550;2022-08-19T07:41:50;22.10;99.90
61916;DHT22;47868;51.326;6.550;2022-08-19T07:44:16;22.10;99.90
61916;DHT22;47868;51.326;6.550;2022-08-19T07:46:44;22.10;99.90
61916;DHT22;47868;51.326;6.550;2022-08-19T07:49:12;22.10;99.90
61916;DHT22;47868;51.326;6.550;2022-08-19T07:51:43;22.10;99.90
61916;DHT22;47868;51.326;6.550;2022-08-19T07:54:10;22.00;99.90
61916;DHT22;47868;51.326;6.550;2022-08-19T07:56:37;22.10;99.90
61916;DHT22;47868;51.326;6.550;2022-08-19T07:59:03;22.10;99.90
61916;DHT22;47868;51.326;6.550;2022-08-19T08:01:29;22.00;99.90
61916;DHT22;47868;51.326;6.550;2022-08-19T08:03:56;22.00;99.90
61916;DHT22;47868;51.326;6.550;2022-08-19T08:06:41;22.00;99.90
61916;DHT22;47868;51.326;6.550;2022-08-19T08:09:30;22.20;99.90
61916;DHT22;47868;51.326;6.550;2022-08-19T08:11:59;22.30;99.90
61916;DHT22;47868;51.326;6.550;2022-08-19T08:14:27;22.30;99.90
61916;DHT22;47868;51.326;6.550;2022-08-19T08:16:53;22.50;99.90
61916;DHT22;47868;51.326;6.550;2022-08-19T08:19:21;22.70;99.90
61916;DHT22;47868;51.326;6.550;2022-08-19T08:21:49;22.90;99.90
61916;DHT22;47868;51.326;6.550;2022-08-19T08:24:15;23.00;99.90
61916;DHT22;47868;51.326;6.550;2022-08-19T08:26:42;23.00;99.90
61916;DHT22;47868;51.326;6.550;2022-08-19T08:29:10;23.00;99.90
61916;DHT22;47868;51.326;6.550;2022-08-19T08:31:39;23.00;99.90
61916;DHT22;47868;51.326;6.550;2022-08-19T08:34:06;23.10;99.90
61916;DHT22;47868;51.326;6.550;2022-08-19T08:36:31;23.10;99.90
61916;DHT22;47868;51.326;6.550;2022-08-19T08:38:59;23.00;99.90
61916;DHT22;47868;51.326;6.550;2022-08-19T08:41:35;23.10;99.90
61916;DHT22;47868;51.326;6.550;2022-08-19T08:44:03;23.20;99.90
61916;DHT22;47868;51.326;6.550;2022-08-19T08:46:51;23.20;99.90
61916;DHT22;47868;51.326;6.550;2022-08-19T08:52:15;23.40;99.90
61916;DHT22;47868;51.326;6.550;2022-08-19T08:54:46;23.50;99.90
61916;DHT22;47868;51.326;6.550;2022-08-19T08:57:37;23.50;99.90
61916;DHT22;47868;51.326;6.550;2022-08-19T09:00:09;23.60;99.90
61916;DHT22;47868;51.326;6.550;2022-08-19T09:02:36;23.60;99.90
61916;DHT22;47868;51.326;6.550;2022-08-19T09:05:01;23.70;99.90
61916;DHT22;47868;51.326;6.550;2022-08-19T09:10:32;23.70;99.90
61916;DHT22;47868;51.326;6.550;2022-08-19T09:13:49;23.70;99.90
61916;DHT22;47868;51.326;6.550;2022-08-19T09:16:16;23.70;99.90
61916;DHT22;47868;51.326;6.550;2022-08-19T09:18:44;23.70;99.90
61916;DHT22;47868;51.326;6.550;2022-08-19T09:21:13;23.80;99.90
61916;DHT22;47868;51.326;6.550;2022-08-19T09:23:39;23.80;99.90
61916;DHT22;47868;51.326;6.550;2022-08-19T09:26:10;23.90;99.90
61916;DHT22;47868;51.326;6.550;2022-08-19T09:28:39;23.90;99.90
61916;DHT22;47868;51.326;6.550;2022-08-19T09:31:16;23.90;99.90
61916;DHT22;47868;51.326;6.550;2022-08-19T09:33:42;23.90;99.90
61916;DHT22;47868;51.326;6.550;2022-08-19T09:36:11;24.00;99.90
61916;DHT22;47868;51.326;6.550;2022-08-19T09:38:38;24.00;99.90
61916;DHT22;47868;51.326;6.550;2022-08-19T09:41:11;24.10;99.90
61916;DHT22;47868;51.326;6.550;2022-08-19T09:43:39;24.10;99.90
61916;DHT22;47868;51.326;6.550;2022-08-19T09:46:07;24.20;99.90
61916;DHT22;47868;51.326;6.550;2022-08-19T09:48:35;24.20;99.90
61916;DHT22;47868;51.326;6.550;2022-08-19T09:51:15;24.30;99.90
61916;DHT22;47868;51.326;6.550;2022-08-19T09:53:43;24.20;99.90
61916;DHT22;47868;51.326;6.550;2022-08-19T09:56:11;24.30;99.90
61916;DHT22;47868;51.326;6.550;2022-08-19T09:58:37;24.40;99.90
61916;DHT22;47868;51.326;6.550;2022-08-19T10:01:04;24.50;99.90
61916;DHT22;47868;51.326;6.550;2022-08-19T10:03:31;24.70;99.90
61916;DHT22;47868;51.326;6.550;2022-08-19T10:06:00;24.80;99.90
61916;DHT22;47868;51.326;6.550;2022-08-19T10:08:29;24.90;99.90
61916;DHT22;47868;51.326;6.550;2022-08-19T10:10:57;25.10;99.90
61916;DHT22;47868;51.326;6.550;2022-08-19T10:13:25;25.10;99.90
61916;DHT22;47868;51.326;6.550;2022-08-19T10:15:54;25.10;99.90
61916;DHT22;47868;51.326;6.550;2022-08-19T10:18:22;25.30;99.90
61916;DHT22;47868;51.326;6.550;2022-08-19T10:20:50;25.40;99.90
61916;DHT22;47868;51.326;6.550;2022-08-19T10:23:16;25.50;99.90
61916;DHT22;47868;51.326;6.550;2022-08-19T10:25:42;25.80;99.90
61916;DHT22;47868;51.326;6.550;2022-08-19T10:28:08;26.00;99.90
61916;DHT22;47868;51.326;6.550;2022-08-19T10:30:38;26.20;99.90
61916;DHT22;47868;51.326;6.550;2022-08-19T10:33:04;26.30;99.90
61916;DHT22;47868;51.326;6.550;2022-08-19T10:35:30;26.30;99.90
61916;DHT22;47868;51.326;6.550;2022-08-19T10:37:56;26.20;99.90
61916;DHT22;47868;51.326;6.550;2022-08-19T10:40:26;26.10;99.90
61916;DHT22;47868;51.326;6.550;2022-08-19T10:42:52;26.10;99.90
61916;DHT22;47868;51.326;6.550;2022-08-19T10:45:18;26.30;99.90
61916;DHT22;47868;51.326;6.550;2022-08-19T10:47:44;26.40;99.90
61916;DHT22;47868;51.326;6.550;2022-08-19T10:50:09;26.40;99.90
61916;DHT22;47868;51.326;6.550;2022-08-19T10:52:54;26.40;99.90
61916;DHT22;47868;51.326;6.550;2022-08-19T10:55:21;26.50;99.90
61916;DHT22;47868;51.326;6.550;2022-08-19T10:58:17;26.40;99.90
61916;DHT22;47868;51.326;6.550;2022-08-19T11:00:57;26.60;99.90
61916;DHT22;47868;51.326;6.550;2022-08-19T11:03:25;26.80;99.90
61916;DHT22;47868;51.326;6.550;2022-08-19T11:06:06;27.00;99.90
61916;DHT22;47868;51.326;6.550;2022-08-19T11:08:34;27.20;99.90
61916;DHT22;47868;51.326;6.550;2022-08-19T11:11:02;27.50;99.70
61916;DHT22;47868;51.326;6.550;2022-08-19T11:13:34;27.60;98.70
61916;DHT22;47868;51.326;6.550;2022-08-19T11:16:11;27.90;98.20
61916;DHT22;47868;51.326;6.550;2022-08-19T11:18:50;28.30;97.60
61916;DHT22;47868;51.326;6.550;2022-08-19T11:23:48;28.90;94.40
61916;DHT22;47868;51.326;6.550;2022-08-19T11:26:15;29.30;91.90
61916;DHT22;47868;51.326;6.550;2022-08-19T11:28:41;29.50;90.90
61916;DHT22;47868;51.326;6.550;2022-08-19T11:31:16;30.10;89.10
61916;DHT22;47868;51.326;6.550;2022-08-19T11:33:42;30.40;86.10
61916;DHT22;47868;51.326;6.550;2022-08-19T11:36:09;30.70;82.00
61916;DHT22;47868;51.326;6.550;2022-08-19T11:38:35;30.70;78.80
61916;DHT22;47868;51.326;6.550;2022-08-19T11:41:05;31.20;76.60
61916;DHT22;47868;51.326;6.550;2022-08-19T11:43:32;31.30;73.10
61916;DHT22;47868;51.326;6.550;2022-08-19T11:45:58;31.50;69.70
61916;DHT22;47868;51.326;6.550;2022-08-19T11:48:25;32.20;67.10
61916;DHT22;47868;51.326;6.550;2022-08-19T11:50:52;32.90;63.90
61916;DHT22;47868;51.326;6.550;2022-08-19T11:53:20;32.90;60.40
61916;DHT22;47868;51.326;6.550;2022-08-19T11:55:53;31.80;58.60
61916;DHT22;47868;51.326;6.550;2022-08-19T11:58:21;31.80;59.10
61916;DHT22;47868;51.326;6.550;2022-08-19T12:00:47;32.10;59.20
61916;DHT22;47868;51.326;6.550;2022-08-19T12:03:13;32.40;59.50
61916;DHT22;47868;51.326;6.550;2022-08-19T12:05:40;32.60;58.00
61916;DHT22;47868;51.326;6.550;2022-08-19T12:08:11;32.40;57.50
61916;DHT22;47868;51.326;6.550;2022-08-19T12:10:38;33.00;56.70
61916;DHT22;47868;51.326;6.550;2022-08-19T12:13:05;33.40;55.50
61916;DHT22;47868;51.326;6.550;2022-08-19T12:15:36;34.20;53.70
61916;DHT22;47868;51.326;6.550;2022-08-19T12:18:04;35.30;49.70
61916;DHT22;47868;51.326;6.550;2022-08-19T12:20:30;35.50;47.40
61916;DHT22;47868;51.326;6.550;2022-08-19T12:22:59;36.30;45.70
61916;DHT22;47868;51.326;6.550;2022-08-19T12:25:24;36.50;44.10
61916;DHT22;47868;51.326;6.550;2022-08-19T12:27:50;37.20;42.80
61916;DHT22;47868;51.326;6.550;2022-08-19T12:30:16;37.10;41.50
61916;DHT22;47868;51.326;6.550;2022-08-19T12:32:41;37.40;41.40
61916;DHT22;47868;51.326;6.550;2022-08-19T12:35:07;37.70;40.30
61916;DHT22;47868;51.326;6.550;2022-08-19T12:37:34;38.80;39.00
61916;DHT22;47868;51.326;6.550;2022-08-19T12:40:01;39.10;36.60
61916;DHT22;47868;51.326;6.550;2022-08-19T12:42:29;39.10;37.20
61916;DHT22;47868;51.326;6.550;2022-08-19T12:44:55;39.40;36.50
61916;DHT22;47868;51.326;6.550;2022-08-19T12:47:22;39.50;34.70
61916;DHT22;47868;51.326;6.550;2022-08-19T12:49:48;39.30;33.70
61916;DHT22;47868;51.326;6.550;2022-08-19T12:52:15;39.90;32.60
61916;DHT22;47868;51.326;6.550;2022-08-19T12:54:41;40.10;33.80
61916;DHT22;47868;51.326;6.550;2022-08-19T12:57:09;40.40;33.60
61916;DHT22;47868;51.326;6.550;2022-08-19T12:59:36;40.60;33.20
61916;DHT22;47868;51.326;6.550;2022-08-19T13:02:04;40.50;33.70
61916;DHT22;47868;51.326;6.550;2022-08-19T13:04:32;40.80;32.40
61916;DHT22;47868;51.326;6.550;2022-08-19T13:06:58;40.10;31.90
61916;DHT22;47868;51.326;6.550;2022-08-19T13:09:24;40.60;31.10
61916;DHT22;47868;51.326;6.550;2022-08-19T13:11:49;40.70;29.50
61916;DHT22;47868;51.326;6.550;2022-08-19T13:14:15;41.00;30.00
61916;DHT22;47868;51.326;6.550;2022-08-19T13:16:41;41.80;29.80
61916;DHT22;47868;51.326;6.550;2022-08-19T13:19:07;42.00;29.70
61916;DHT22;47868;51.326;6.550;2022-08-19T13:21:33;42.80;29.70
61916;DHT22;47868;51.326;6.550;2022-08-19T13:23:59;42.80;29.10
61916;DHT22;47868;51.326;6.550;2022-08-19T13:26:25;43.40;28.60
61916;DHT22;47868;51.326;6.550;2022-08-19T13:28:51;43.50;27.70
61916;DHT22;47868;51.326;6.550;2022-08-19T13:31:36;43.50;27.80
61916;DHT22;47868;51.326;6.550;2022-08-19T13:34:32;45.20;27.50
61916;DHT22;47868;51.326;6.550;2022-08-19T13:36:59;46.10;26.70
61916;DHT22;47868;51.326;6.550;2022-08-19T13:39:28;47.00;26.00
61916;DHT22;47868;51.326;6.550;2022-08-19T13:41:54;47.30;25.30
61916;DHT22;47868;51.326;6.550;2022-08-19T13:44:21;47.50;25.30
61916;DHT22;47868;51.326;6.550;2022-08-19T13:46:48;47.10;25.20
61916;DHT22;47868;51.326;6.550;2022-08-19T13:49:18;47.10;25.70
61916;DHT22;47868;51.326;6.550;2022-08-19T13:51:43;47.80;25.30
61916;DHT22;47868;51.326;6.550;2022-08-19T13:54:10;47.80;25.00
61916;DHT22;47868;51.326;6.550;2022-08-19T13:56:42;48.30;24.50
61916;DHT22;47868;51.326;6.550;2022-08-19T13:59:08;48.40;24.50
61916;DHT22;47868;51.326;6.550;2022-08-19T14:01:35;49.10;24.50
61916;DHT22;47868;51.326;6.550;2022-08-19T14:04:02;49.40;23.90
61916;DHT22;47868;51.326;6.550;2022-08-19T14:06:27;48.80;24.10
61916;DHT22;47868;51.326;6.550;2022-08-19T14:08:53;48.30;24.30
61916;DHT22;47868;51.326;6.550;2022-08-19T14:11:19;49.30;24.10
61916;DHT22;47868;51.326;6.550;2022-08-19T14:13:44;50.60;23.20
61916;DHT22;47868;51.326;6.550;2022-08-19T14:16:12;50.20;22.50
61916;DHT22;47868;51.326;6.550;2022-08-19T14:18:40;50.30;21.90
61916;DHT22;47868;51.326;6.550;2022-08-19T14:21:06;50.60;21.30
61916;DHT22;47868;51.326;6.550;2022-08-19T14:23:33;50.90;21.30
61916;DHT22;47868;51.326;6.550;2022-08-19T14:26:11;51.50;20.60
61916;DHT22;47868;51.326;6.550;2022-08-19T14:28:38;50.10;20.90
61916;DHT22;47868;51.326;6.550;2022-08-19T14:31:07;50.50;20.40
61916;DHT22;47868;51.326;6.550;2022-08-19T14:33:33;51.20;20.60
61916;DHT22;47868;51.326;6.550;2022-08-19T14:35:59;51.40;20.80
61916;DHT22;47868;51.326;6.550;2022-08-19T14:38:26;50.30;21.50
61916;DHT22;47868;51.326;6.550;2022-08-19T14:40:52;48.70;22.20
61916;DHT22;47868;51.326;6.550;2022-08-19T14:43:18;46.60;23.90
61916;DHT22;47868;51.326;6.550;2022-08-19T14:45:45;46.30;24.10
61916;DHT22;47868;51.326;6.550;2022-08-19T14:48:10;48.30;23.00
61916;DHT22;47868;51.326;6.550;2022-08-19T14:50:36;49.60;21.70
61916;DHT22;47868;51.326;6.550;2022-08-19T14:53:07;49.50;21.50
61916;DHT22;47868;51.326;6.550;2022-08-19T14:55:34;49.90;20.70
61916;DHT22;47868;51.326;6.550;2022-08-19T14:58:00;49.80;20.80
61916;DHT22;47868;51.326;6.550;2022-08-19T15:00:26;50.50;20.90
61916;DHT22;47868;51.326;6.550;2022-08-19T15:02:51;51.20;20.30
61916;DHT22;47868;51.326;6.550;2022-08-19T15:05:18;51.20;20.10
61916;DHT22;47868;51.326;6.550;2022-08-19T15:07:44;51.30;19.40
61916;DHT22;47868;51.326;6.550;2022-08-19T15:10:11;50.30;20.80
61916;DHT22;47868;51.326;6.550;2022-08-19T15:12:38;50.90;21.10
61916;DHT22;47868;51.326;6.550;2022-08-19T15:15:10;50.50;21.20
61916;DHT22;47868;51.326;6.550;2022-08-19T15:17:38;50.30;21.30
61916;DHT22;47868;51.326;6.550;2022-08-19T15:20:06;50.00;21.30
61916;DHT22;47868;51.326;6.550;2022-08-19T15:22:32;50.90;20.50
61916;DHT22;47868;51.326;6.550;2022-08-19T15:24:58;45.80;22.40
61916;DHT22;47868;51.326;6.550;2022-08-19T15:27:24;45.30;24.60
61916;DHT22;47868;51.326;6.550;2022-08-19T15:29:50;47.20;23.60
61916;DHT22;47868;51.326;6.550;2022-08-19T15:32:16;48.00;22.70
61916;DHT22;47868;51.326;6.550;2022-08-19T15:34:41;48.70;22.50
61916;DHT22;47868;51.326;6.550;2022-08-19T15:37:07;47.90;22.90
61916;DHT22;47868;51.326;6.550;2022-08-19T15:39:33;48.00;23.20
61916;DHT22;47868;51.326;6.550;2022-08-19T15:41:59;47.70;23.20
61916;DHT22;47868;51.326;6.550;2022-08-19T15:44:25;48.70;22.90
61916;DHT22;47868;51.326;6.550;2022-08-19T15:46:52;49.00;22.80